Trenton, NJ (08607)

9:54 PM EDT on September 29, 2016 (GMT -0400)
Morris Heights | | Change Station

Elev 89 ft 40.22 °N, 74.78 °W | Updated 25 seconds ago

Light Rain
Light Rain
59.0 °F
Feels Like 59.0 °F
N
1.9
Wind Variable Wind from NNE
Gusts 16.5 mph

Today
High -- | Low -- °F
--% Chance of Precip.
Yesterday
High -- | Low -- °F
Precip. -- in
Pressure 30.30 in
Visibility 9.0 miles
Clouds Overcast 1300 ft
Dew Point 56 °F
Humidity 88%
Rainfall 0.18 in
Snow Depth Not available.
6:53 AM 6:43 PM
Waning Crescent, 1% visible
METAR KTTN 300053Z 08015G22KT 9SM -RA OVC013 15/13 A3032 RMK AO2 SLP260 P0003 T01500128
Pressure 30.30 in
Visibility 9.0 miles
Clouds Overcast 1300 ft
Dew Point 56 °F
Humidity 88%
Rainfall 0.18 in
Snow Depth Not available.
6:53 AM 6:43 PM
Waning Crescent, 1% visible
METAR KTTN 300053Z 08015G22KT 9SM -RA OVC013 15/13 A3032 RMK AO2 SLP260 P0003 T01500128

10-Day Weather Forecast

Almanac

Astronomy

Sep. 29, 2016 Rise Set
Actual Time
Civil Twilight
Nautical Twilight
Astronomical Twilight
Moon
Length of Visible Light
Length of Day
Tomorrow will be .
, % of the Moon is Illuminated

Today's Extremes

State Highs State Lows

Community

WunderPhotos

Upload Photos

1,942,628 photos uploaded!

WunderBlog® & News

Nearby

Air Quality

  Air Quality AQ Index Pollutant
Not available.

Snow Depth

Station Depth Elevation

Earthquake Activity

City Distance Mag. Time & Date
Minimum magnitude displayed is 2.5.

Coastal Water Temperatures

Place Temperature

Stations

Nearby Weather Stations

Station Location Temp. Windchill Dew Point Humidity Wind Precip. Elev Updated Type
                   

Watches & Warnings

There are currently no watches in effect.